Aviation Digital Data Service (ADDS)

Output produced by TAFs form (0550 UTC 25 February 2018)
found at http://aviationweather.gov/adds/tafs/
 
METAR text: ELLX 250520Z 07012KT CAVOK M07/M13 Q1021 R99/09//55 NOSIG
Conditions at: ELLX (LUXEMBOURG (AUT), LU) observed 0520 UTC 25 February 2018
Temperature: -7.0°C (19°F)
Dewpoint: -13.0°C (9°F) [RH = 62%]
Pressure (altimeter): 30.15 inches Hg (1021.0 mb)
Winds: from the ENE (70 degrees) at 14 MPH (12 knots; 6.2 m/s)
Visibility: 6 or more miles (10+ km)
Ceiling: ceiling and visibility are OK
Clouds: unknown
Weather: no significant weather observed at this time

Forecast for: ELLX (LUXEMBOURG (AUT), LU)
Text: TAF ELLX 250500Z 2506/2612 06013KT CAVOK
Forecast period: 0600 UTC 25 February 2018 to 1200 UTC 26 February 2018
Forecast type: FROM: standard forecast or significant change
Winds: from the ENE (60 degrees) at 15 MPH (13 knots; 6.8 m/s)
Visibility: 6 or more miles (10+ km)
Clouds: not forecast
Weather: NSW  (no significant weather)
Text: TEMPO 2506/2612 06018G30KT
Forecast period: 0600 UTC 25 February 2018 to 1200 UTC 26 February 2018
Forecast type: TEMPORARY: The following changes expected for less than half the time period
Winds: from the ENE (60 degrees) at 21 MPH (18 knots; 9.4 m/s)
gusting to 34 MPH (30 knots; 15.6 m/s)
Weather: no significant weather forecast for this period